Time;durP1;ratioP1;P1;durP2;ratioP2;P2;SDS_P1;SDS_P2;PMS_P1;PMS_P2;Temp;Humidity;BMP_temperature;BMP_pressure;BME280_temperature;BME280_humidity;BME280_pressure;Samples;Min_cycle;Max_cycle;Signal;HPM_P1;HPM_P2
2023/01/24 00:00:06;;;;;;;28.38;19.40;;;3.50;99.90;;;;;;5053109;28;20024;-85
2023/01/24 00:02:32;;;;;;;46.47;30.45;;;3.40;99.90;;;;;;5053068;28;20458;-84
2023/01/24 00:04:57;;;;;;;41.33;27.30;;;3.50;99.90;;;;;;5052908;28;20086;-85
2023/01/24 00:07:23;;;;;;;30.65;21.30;;;3.50;99.90;;;;;;5053368;28;20075;-85
2023/01/24 00:09:49;;;;;;;31.20;21.45;;;3.40;99.90;;;;;;5052678;28;20114;-84
2023/01/24 00:12:14;;;;;;;28.60;20.67;;;3.30;99.90;;;;;;5052912;28;20044;-84
2023/01/24 00:14:40;;;;;;;24.45;17.70;;;3.70;99.90;;;;;;5052740;28;20378;-84
2023/01/24 00:17:07;;;;;;;23.33;16.77;;;3.60;99.90;;;;;;5052579;28;20032;-85
2023/01/24 00:19:33;;;;;;;23.15;15.98;;;3.40;99.90;;;;;;5052469;28;20033;-84
2023/01/24 00:22:00;;;;;;;24.15;16.83;;;3.50;99.90;;;;;;5052606;28;20029;-85
2023/01/24 00:24:26;;;;;;;26.92;18.10;;;3.70;99.90;;;;;;5052541;28;20070;-84
2023/01/24 00:26:52;;;;;;;24.00;17.00;;;3.30;99.90;;;;;;5052455;28;20021;-84
2023/01/24 00:29:17;;;;;;;24.42;16.88;;;3.40;99.90;;;;;;5052691;28;20029;-84
2023/01/24 00:31:43;;;;;;;25.02;18.13;;;3.70;99.90;;;;;;5052429;28;20037;-83
2023/01/24 00:34:08;;;;;;;24.98;17.67;;;3.50;99.90;;;;;;5052405;28;20102;-85
2023/01/24 00:36:34;;;;;;;23.88;17.08;;;3.80;99.90;;;;;;5052999;28;20056;-85
2023/01/24 00:39:00;;;;;;;24.75;16.92;;;3.50;99.90;;;;;;5052178;28;20060;-85
2023/01/24 00:41:25;;;;;;;25.05;18.02;;;3.50;99.90;;;;;;5052477;28;20049;-85
2023/01/24 00:43:51;;;;;;;25.83;17.35;;;3.60;99.90;;;;;;5052364;28;20040;-85
2023/01/24 00:46:16;;;;;;;25.83;18.60;;;3.80;99.90;;;;;;5052536;28;20029;-85
2023/01/24 00:48:42;;;;;;;24.45;16.92;;;3.40;99.90;;;;;;5052422;28;20064;-84
2023/01/24 00:51:08;;;;;;;25.20;18.55;;;3.60;99.90;;;;;;5052564;28;20021;-85
2023/01/24 00:53:34;;;;;;;25.08;17.73;;;3.90;99.90;;;;;;5051789;28;20025;-84
2023/01/24 00:55:59;;;;;;;26.50;18.45;;;3.40;99.90;;;;;;5052296;28;20035;-85
2023/01/24 00:58:25;;;;;;;25.90;17.58;;;3.70;99.90;;;;;;5052594;28;20040;-85
2023/01/24 01:00:53;;;;;;;28.33;18.45;;;3.70;99.90;;;;;;5052345;28;20493;-85
2023/01/24 01:03:19;;;;;;;25.63;17.70;;;3.70;99.90;;;;;;5052048;28;20083;-84
2023/01/24 01:05:45;;;;;;;26.42;18.58;;;3.70;99.90;;;;;;5051752;28;20021;-84
2023/01/24 01:08:11;;;;;;;27.63;18.95;;;3.40;99.90;;;;;;5052208;28;20021;-85
2023/01/24 01:10:37;;;;;;;26.83;19.05;;;3.60;99.90;;;;;;5052113;28;20455;-85
2023/01/24 01:13:04;;;;;;;26.67;18.48;;;3.40;99.90;;;;;;5052306;28;20112;-85
2023/01/24 01:15:30;;;;;;;24.33;17.40;;;3.60;99.90;;;;;;5051572;28;20025;-85
2023/01/24 01:17:57;;;;;;;26.15;17.48;;;3.30;99.90;;;;;;5051981;28;20021;-85
2023/01/24 01:20:23;;;;;;;26.63;17.80;;;3.60;99.90;;;;;;5051384;28;20028;-85
2023/01/24 01:22:48;;;;;;;27.15;17.77;;;3.20;99.90;;;;;;5052053;28;20532;-85
2023/01/24 01:25:14;;;;;;;24.63;16.92;;;3.10;99.90;;;;;;5051781;28;20040;-85
2023/01/24 01:27:40;;;;;;;25.05;17.52;;;3.20;99.90;;;;;;5051900;28;20032;-85
2023/01/24 01:30:06;;;;;;;26.75;17.52;;;3.50;99.90;;;;;;5052023;28;20382;-85
2023/01/24 01:32:32;;;;;;;24.73;17.42;;;3.30;99.90;;;;;;5053452;28;20051;-84
2023/01/24 01:34:57;;;;;;;24.95;17.65;;;3.50;99.90;;;;;;5055992;28;20026;-85
2023/01/24 01:37:24;;;;;;;24.95;17.17;;;3.30;99.90;;;;;;5055788;28;20436;-84
2023/01/24 01:39:49;;;;;;;24.17;16.38;;;3.70;99.90;;;;;;5055993;28;20031;-85
2023/01/24 01:42:15;;;;;;;26.60;17.88;;;3.70;99.90;;;;;;5055975;28;20100;-84
2023/01/24 01:44:43;;;;;;;26.02;17.55;;;3.10;99.90;;;;;;5055577;28;20083;-85
2023/01/24 01:47:27;;;;;;;24.42;17.67;;;3.40;99.90;;;;;;5055795;28;20381;-85
2023/01/24 01:49:53;;;;;;;23.83;16.95;;;3.30;99.90;;;;;;5055226;28;20663;-84
2023/01/24 01:52:19;;;;;;;25.20;16.85;;;3.60;99.90;;;;;;5055509;28;20059;-85
2023/01/24 01:54:47;;;;;;;26.55;17.45;;;3.70;99.90;;;;;;5055325;28;20028;-84
2023/01/24 01:57:22;;;;;;;24.02;16.10;;;3.20;99.90;;;;;;5055486;28;20044;-84
2023/01/24 01:59:54;;;;;;;24.40;17.20;;;3.30;99.90;;;;;;5055401;28;20469;-84
2023/01/24 02:02:21;;;;;;;26.77;17.90;;;3.20;99.90;;;;;;5055751;28;20099;-84
2023/01/24 02:04:52;;;;;;;24.98;17.55;;;3.40;99.90;;;;;;5054701;28;20044;-85
2023/01/24 02:07:31;;;;;;;26.35;17.38;;;3.10;99.90;;;;;;5055249;28;20032;-85
2023/01/24 02:09:58;;;;;;;25.20;17.23;;;3.00;99.90;;;;;;5055069;28;20047;-85
2023/01/24 02:12:27;;;;;;;24.77;16.45;;;3.10;99.90;;;;;;5055294;28;20533;-85
2023/01/24 02:18:00;;;;;;;23.88;16.80;;;3.40;99.90;;;;;;5055095;28;20060;-84
2023/01/24 02:20:41;;;;;;;27.77;17.20;;;3.30;99.90;;;;;;5054810;28;20039;-85
2023/01/24 02:23:43;;;;;;;24.00;16.60;;;3.20;99.90;;;;;;5054791;28;20083;-84
2023/01/24 02:26:18;;;;;;;23.23;15.93;;;3.20;99.90;;;;;;5055025;28;20493;-84
2023/01/24 02:29:19;;;;;;;24.20;16.73;;;3.60;99.90;;;;;;5055073;28;20025;-85
2023/01/24 02:31:59;;;;;;;25.08;16.75;;;3.50;99.90;;;;;;4993019;28;20506;-85
2023/01/24 02:34:26;;;;;;;27.48;17.30;;;3.30;99.90;;;;;;4992930;28;20056;-85
2023/01/24 02:37:13;;;;;;;24.50;16.60;;;3.60;99.90;;;;;;4993384;28;20027;-85
2023/01/24 02:39:41;;;;;;;26.70;17.40;;;3.30;99.90;;;;;;4993115;28;20038;-85
2023/01/24 02:42:16;;;;;;;25.00;17.45;;;3.60;99.90;;;;;;4993114;28;20073;-85
2023/01/24 02:45:03;;;;;;;22.50;16.48;;;3.70;99.90;;;;;;4976600;28;20093;-85
2023/01/24 02:47:32;;;;;;;24.70;17.27;;;3.20;99.90;;;;;;4992752;28;20049;-84
2023/01/24 02:50:01;;;;;;;26.77;17.52;;;3.10;99.90;;;;;;4993225;28;20034;-84
2023/01/24 02:55:12;;;;;;;24.20;16.17;;;3.20;99.90;;;;;;4993431;28;20109;-85
2023/01/24 03:00:22;;;;;;;25.77;17.23;;;3.60;99.90;;;;;;4993195;28;20133;-84
2023/01/24 03:02:48;;;;;;;27.73;18.10;;;3.10;99.90;;;;;;4992370;28;20423;-84
2023/01/24 03:05:14;;;;;;;23.20;16.55;;;3.50;99.90;;;;;;5011008;28;20076;-84
2023/01/24 03:07:44;;;;;;;24.63;17.27;;;3.10;99.90;;;;;;5054067;28;20437;-85
2023/01/24 03:10:11;;;;;;;25.30;16.95;;;3.10;99.90;;;;;;5054032;28;20029;-85
2023/01/24 03:34:45;;;;;;;26.60;17.55;;;3.20;99.90;;;;;;5053965;28;20087;-85
2023/01/24 03:37:14;;;;;;;25.98;17.55;;;3.40;99.90;;;;;;5053671;28;20037;-85
2023/01/24 03:39:58;;;;;;;28.67;17.55;;;3.30;99.90;;;;;;5053487;28;20438;-85
2023/01/24 03:42:26;;;;;;;24.90;17.08;;;3.10;99.90;;;;;;5053387;28;20017;-84
2023/01/24 03:44:52;;;;;;;26.67;17.17;;;3.20;99.90;;;;;;5035391;28;20096;-85
2023/01/24 03:47:17;;;;;;;24.85;17.42;;;3.20;99.90;;;;;;5053181;28;20385;-85
2023/01/24 03:52:28;;;;;;;28.00;17.67;;;3.60;99.90;;;;;;5053612;28;20047;-85
2023/01/24 03:54:57;;;;;;;28.33;18.63;;;3.30;99.90;;;;;;5052506;28;20025;-85
2023/01/24 03:57:24;;;;;;;29.42;19.35;;;3.20;99.90;;;;;;5053167;28;20029;-84
2023/01/24 03:59:50;;;;;;;27.25;17.38;;;3.20;99.90;;;;;;5053210;28;20029;-85
2023/01/24 04:02:16;;;;;;;26.83;18.08;;;3.70;99.90;;;;;;5053008;28;20385;-84
2023/01/24 04:07:26;;;;;;;27.77;18.50;;;3.20;99.90;;;;;;5053146;28;20032;-85
2023/01/24 04:09:52;;;;;;;26.55;17.90;;;3.40;99.90;;;;;;5052829;28;20052;-84
2023/01/24 04:12:18;;;;;;;26.10;17.63;;;3.50;99.90;;;;;;5053380;28;20025;-84
2023/01/24 04:14:43;;;;;;;27.30;18.08;;;3.50;99.90;;;;;;5052127;28;20492;-85
2023/01/24 04:17:09;;;;;;;26.65;17.33;;;3.20;99.90;;;;;;5046146;28;20033;-85
2023/01/24 04:19:35;;;;;;;27.73;18.00;;;3.40;99.90;;;;;;5052794;28;20108;-84
2023/01/24 04:22:01;;;;;;;27.63;18.35;;;3.00;99.90;;;;;;5053243;28;20106;-85
2023/01/24 04:24:26;;;;;;;25.70;16.98;;;3.20;99.90;;;;;;5052710;28;20037;-85
2023/01/24 04:26:52;;;;;;;24.23;16.63;;;3.40;99.90;;;;;;5052643;28;20049;-84
2023/01/24 04:29:17;;;;;;;27.35;17.80;;;3.70;99.90;;;;;;5052289;28;20048;-85
2023/01/24 04:31:43;;;;;;;29.73;19.15;;;3.40;99.90;;;;;;5052419;28;20087;-85
2023/01/24 04:34:09;;;;;;;26.25;16.73;;;3.30;99.90;;;;;;5052814;28;20401;-84
2023/01/24 04:36:34;;;;;;;27.35;17.10;;;3.30;99.90;;;;;;5052549;28;20079;-85
2023/01/24 04:39:00;;;;;;;28.92;17.83;;;3.50;99.90;;;;;;5052470;28;20063;-84
2023/01/24 04:41:26;;;;;;;25.70;17.67;;;3.40;99.90;;;;;;5052384;28;20035;-85
2023/01/24 04:43:51;;;;;;;30.63;18.40;;;3.40;99.90;;;;;;5051924;28;20104;-84
2023/01/24 04:46:17;;;;;;;27.85;17.80;;;3.30;99.90;;;;;;5052368;28;20040;-85
2023/01/24 04:48:43;;;;;;;26.10;17.17;;;3.70;99.90;;;;;;5052342;28;20049;-84
2023/01/24 04:51:11;;;;;;;27.77;17.83;;;3.30;99.90;;;;;;5052340;28;20033;-85
2023/01/24 04:53:41;;;;;;;32.72;18.10;;;3.50;99.90;;;;;;5052474;28;20113;-85
2023/01/24 04:56:07;;;;;;;27.02;17.10;;;3.60;99.90;;;;;;5051980;28;20108;-84
2023/01/24 04:58:34;;;;;;;26.45;17.35;;;3.50;99.90;;;;;;5051798;28;20025;-84
2023/01/24 05:01:00;;;;;;;24.98;16.25;;;3.60;99.90;;;;;;5052135;28;20466;-85
2023/01/24 05:03:25;;;;;;;27.95;17.45;;;3.20;99.90;;;;;;5051738;28;20075;-84
2023/01/24 05:05:52;;;;;;;27.65;17.60;;;3.50;99.90;;;;;;5052312;28;20033;-84
2023/01/24 05:08:18;;;;;;;27.00;17.45;;;3.40;99.90;;;;;;5051841;28;20025;-84
2023/01/24 05:10:44;;;;;;;27.65;17.27;;;3.10;99.90;;;;;;5051867;28;20505;-84
2023/01/24 05:13:10;;;;;;;26.77;17.40;;;3.50;99.90;;;;;;5051892;28;20020;-85
2023/01/24 05:15:35;;;;;;;26.40;17.00;;;3.30;99.90;;;;;;5051765;28;20025;-84
2023/01/24 05:18:02;;;;;;;25.50;17.42;;;3.50;99.90;;;;;;5051964;28;20025;-85
2023/01/24 05:20:28;;;;;;;28.13;18.00;;;3.10;99.90;;;;;;5052142;28;20122;-85
2023/01/24 05:22:56;;;;;;;26.23;17.40;;;3.60;99.90;;;;;;5052297;28;20474;-84
2023/01/24 05:25:22;;;;;;;27.25;17.40;;;3.10;99.90;;;;;;5051787;28;20083;-84
2023/01/24 05:27:47;;;;;;;26.27;17.23;;;3.50;99.90;;;;;;5051751;28;20429;-85
2023/01/24 05:30:13;;;;;;;27.58;17.58;;;3.50;99.90;;;;;;5051511;28;20060;-85
2023/01/24 05:32:39;;;;;;;26.17;16.80;;;3.20;99.90;;;;;;5051821;28;20049;-85
2023/01/24 05:35:06;;;;;;;29.55;17.17;;;3.30;99.90;;;;;;5051732;28;20079;-84
2023/01/24 05:37:31;;;;;;;25.73;17.52;;;3.30;99.90;;;;;;5051827;28;20555;-85
2023/01/24 05:39:57;;;;;;;28.48;17.65;;;3.60;99.90;;;;;;5052088;28;20025;-85
2023/01/24 05:42:22;;;;;;;28.52;17.95;;;3.50;99.90;;;;;;5033424;28;20052;-84
2023/01/24 05:44:48;;;;;;;28.00;17.85;;;3.20;99.90;;;;;;5051514;28;20037;-85
2023/01/24 05:47:14;;;;;;;28.90;17.27;;;3.50;99.90;;;;;;5051638;28;20474;-85
2023/01/24 05:49:40;;;;;;;27.73;17.52;;;3.50;99.90;;;;;;5051862;28;20513;-85
2023/01/24 05:52:05;;;;;;;30.17;18.98;;;3.70;99.90;;;;;;5051144;28;20025;-85
2023/01/24 05:54:31;;;;;;;28.67;17.90;;;3.70;99.90;;;;;;5051249;28;20084;-84
2023/01/24 05:56:57;;;;;;;29.23;18.10;;;3.40;99.90;;;;;;5051584;28;20374;-85
2023/01/24 05:59:22;;;;;;;25.83;17.40;;;3.30;99.90;;;;;;5051366;28;20064;-82
2023/01/24 06:01:48;;;;;;;27.88;17.77;;;3.50;99.90;;;;;;5051457;28;20028;-86
2023/01/24 06:04:13;;;;;;;26.77;17.73;;;3.60;99.90;;;;;;5051315;28;20037;-85
2023/01/24 06:06:39;;;;;;;31.67;18.67;;;3.60;99.90;;;;;;5052099;28;20025;-85
2023/01/24 06:09:05;;;;;;;29.05;17.75;;;3.30;99.90;;;;;;5051493;28;20037;-85
2023/01/24 06:11:32;;;;;;;29.95;18.70;;;3.30;99.90;;;;;;5050847;28;20072;-85
2023/01/24 06:13:58;;;;;;;29.20;18.73;;;3.00;99.90;;;;;;5051127;28;20037;-85
2023/01/24 06:16:25;;;;;;;30.52;18.88;;;3.00;99.90;;;;;;5051161;28;20029;-84
2023/01/24 06:18:52;;;;;;;31.63;18.77;;;3.10;99.90;;;;;;5053530;28;20057;-85
2023/01/24 06:21:46;;;;;;;28.67;18.33;;;3.60;99.90;;;;;;5054942;28;20116;-85
2023/01/24 06:24:18;;;;;;;28.42;18.98;;;3.20;99.90;;;;;;5054666;28;20036;-85
2023/01/24 06:26:44;;;;;;;37.85;21.15;;;3.20;99.90;;;;;;5054067;28;20079;-85
2023/01/24 06:29:13;;;;;;;38.67;22.40;;;3.20;99.90;;;;;;5054654;28;20389;-84
2023/01/24 06:32:02;;;;;;;33.60;19.10;;;3.20;99.90;;;;;;5054412;28;20065;-84
2023/01/24 06:34:54;;;;;;;34.88;21.23;;;3.20;99.90;;;;;;5054824;28;20033;-84
2023/01/24 06:37:32;;;;;;;31.98;20.08;;;3.20;99.90;;;;;;5054799;28;20036;-84
2023/01/24 06:39:58;;;;;;;28.80;18.15;;;3.30;99.90;;;;;;5054376;28;20060;-84
2023/01/24 06:42:24;;;;;;;30.73;20.00;;;3.30;99.90;;;;;;5053808;28;20032;-85
2023/01/24 06:44:49;;;;;;;36.47;20.50;;;3.30;99.90;;;;;;5054941;28;20087;-84
2023/01/24 06:47:16;;;;;;;30.60;18.83;;;3.50;99.90;;;;;;5053952;28;20028;-84
2023/01/24 06:49:42;;;;;;;33.00;18.83;;;3.30;99.90;;;;;;5054074;28;20070;-85
2023/01/24 06:52:08;;;;;;;30.13;19.08;;;3.60;99.90;;;;;;5054587;28;20029;-85
2023/01/24 06:54:35;;;;;;;32.25;19.65;;;3.70;99.90;;;;;;5053827;28;20033;-85
2023/01/24 06:57:02;;;;;;;30.20;19.23;;;3.70;99.90;;;;;;5054193;28;20091;-84
2023/01/24 06:59:27;;;;;;;31.08;19.25;;;3.30;99.90;;;;;;5055426;28;20033;-84
2023/01/24 07:01:53;;;;;;;41.22;23.98;;;3.40;99.90;;;;;;5056534;28;20021;-84
2023/01/24 07:04:19;;;;;;;33.17;20.73;;;3.80;99.90;;;;;;5036174;28;20037;-84
2023/01/24 07:06:44;;;;;;;41.90;27.00;;;3.70;99.90;;;;;;5054431;28;20025;-84
2023/01/24 07:09:10;;;;;;;37.20;23.65;;;3.40;99.90;;;;;;5053670;28;20029;-84
2023/01/24 07:11:36;;;;;;;36.13;23.05;;;3.30;99.90;;;;;;5054043;28;20481;-85
2023/01/24 07:14:02;;;;;;;38.45;22.92;;;3.70;99.90;;;;;;5053752;28;20018;-84
2023/01/24 07:16:28;;;;;;;38.20;23.70;;;3.40;99.90;;;;;;5054097;28;20082;-84
2023/01/24 07:18:54;;;;;;;35.65;20.98;;;3.80;99.90;;;;;;5053985;28;20033;-85
2023/01/24 07:21:20;;;;;;;33.22;19.42;;;3.50;99.90;;;;;;5054121;28;20477;-85
2023/01/24 07:23:47;;;;;;;39.22;22.38;;;3.80;99.90;;;;;;5053312;28;20098;-85
2023/01/24 07:26:14;;;;;;;36.67;22.00;;;3.70;99.90;;;;;;5053976;28;20424;-85
2023/01/24 07:28:40;;;;;;;34.22;21.70;;;3.80;99.90;;;;;;5053474;28;20025;-85
2023/01/24 07:31:06;;;;;;;47.53;26.15;;;4.20;99.90;;;;;;5052745;28;20028;-85
2023/01/24 07:33:32;;;;;;;42.00;25.35;;;3.80;99.90;;;;;;5053359;28;20045;-85
2023/01/24 07:35:57;;;;;;;43.05;24.67;;;3.50;99.90;;;;;;5053694;28;20021;-84
2023/01/24 07:38:23;;;;;;;38.80;23.88;;;3.60;99.90;;;;;;5053105;28;20266;-84
2023/01/24 07:40:49;;;;;;;32.50;19.60;;;3.80;99.90;;;;;;5053157;28;20021;-81
2023/01/24 07:43:14;;;;;;;33.25;20.63;;;3.80;99.90;;;;;;5053765;28;20095;-82
2023/01/24 07:45:44;;;;;;;35.20;22.05;;;3.90;99.90;;;;;;5052814;28;20103;-84
2023/01/24 07:48:09;;;;;;;29.88;18.95;;;4.10;99.90;;;;;;5053291;28;20495;-83
2023/01/24 07:50:35;;;;;;;28.33;18.88;;;4.20;99.90;;;;;;5053186;28;20047;-84
2023/01/24 07:53:02;;;;;;;31.73;19.48;;;4.20;99.90;;;;;;5053065;28;20029;-83
2023/01/24 07:55:28;;;;;;;32.80;20.27;;;4.60;99.90;;;;;;5052977;28;20040;-87
2023/01/24 07:58:01;;;;;;;35.30;23.15;;;4.50;99.90;;;;;;5053297;28;20024;-87
2023/01/24 08:00:28;;;;;;;30.30;19.48;;;4.60;99.90;;;;;;5050858;28;20385;-83
2023/01/24 08:02:53;;;;;;;27.13;18.98;;;4.70;99.90;;;;;;5032861;28;20021;-85
2023/01/24 08:05:19;;;;;;;32.75;19.95;;;4.70;99.90;;;;;;5048538;28;20032;-86
2023/01/24 08:07:45;;;;;;;27.25;19.75;;;5.20;99.90;;;;;;5056173;28;20029;-86
2023/01/24 08:10:10;;;;;;;30.40;19.95;;;5.60;99.90;;;;;;5052627;28;20056;-86
2023/01/24 08:12:36;;;;;;;31.85;19.73;;;6.00;99.90;;;;;;5052867;28;20028;-86
2023/01/24 08:15:02;;;;;;;27.98;18.17;;;6.30;99.90;;;;;;5053066;28;20039;-86
2023/01/24 08:17:28;;;;;;;27.83;18.10;;;6.60;99.90;;;;;;5052524;28;20017;-86
2023/01/24 08:19:54;;;;;;;32.75;19.95;;;7.00;99.90;;;;;;5052785;28;20031;-86
2023/01/24 08:22:19;;;;;;;30.60;20.00;;;7.40;99.90;;;;;;5052286;28;20367;-86
2023/01/24 08:24:45;;;;;;;29.90;19.30;;;7.40;99.90;;;;;;5052873;28;20087;-86
2023/01/24 08:27:10;;;;;;;29.98;19.00;;;9.30;99.90;;;;;;5034982;28;20052;-86
2023/01/24 08:29:36;;;;;;;32.83;19.17;;;10.00;99.90;;;;;;5052555;28;20033;-85
2023/01/24 08:32:02;;;;;;;30.33;20.15;;;10.60;99.90;;;;;;5052367;28;20049;-86
2023/01/24 08:34:27;;;;;;;28.30;18.80;;;11.20;99.90;;;;;;5052493;28;20094;-86
2023/01/24 08:36:53;;;;;;;27.35;17.05;;;12.30;99.90;;;;;;5051355;28;20047;-86
2023/01/24 08:39:19;;;;;;;25.70;17.00;;;13.00;99.90;;;;;;5053156;28;20032;-86
2023/01/24 08:41:45;;;;;;;22.02;15.75;;;13.10;99.90;;;;;;5052212;28;20463;-86
2023/01/24 08:44:12;;;;;;;23.00;16.55;;;12.80;99.90;;;;;;5052333;28;20030;-86
2023/01/24 08:46:38;;;;;;;24.30;16.58;;;12.90;99.90;;;;;;5052410;28;20043;-86
2023/01/24 08:49:04;;;;;;;25.63;17.13;;;12.90;99.90;;;;;;5052312;28;20033;-86
2023/01/24 08:51:29;;;;;;;33.58;23.17;;;10.60;99.90;;;;;;5051676;28;20214;-86
2023/01/24 08:53:55;;;;;;;26.77;17.92;;;9.10;99.90;;;;;;5052033;28;20056;-86
2023/01/24 08:56:21;;;;;;;25.00;16.52;;;11.90;99.90;;;;;;5051723;28;20420;-86
2023/01/24 08:58:46;;;;;;;22.02;15.90;;;13.50;99.90;;;;;;5044272;28;20028;-87
2023/01/24 09:01:12;;;;;;;24.17;17.33;;;14.30;99.90;;;;;;5052197;28;20369;-86
2023/01/24 09:03:38;;;;;;;24.73;18.08;;;14.40;99.90;;;;;;5051936;28;20159;-86
2023/01/24 09:06:04;;;;;;;27.55;17.75;;;14.70;99.90;;;;;;5051765;28;20051;-86
2023/01/24 09:08:30;;;;;;;23.10;17.08;;;15.30;99.90;;;;;;5053083;28;20118;-87
2023/01/24 09:11:02;;;;;;;23.17;17.08;;;13.30;99.90;;;;;;5052026;28;20485;-86
2023/01/24 09:13:28;;;;;;;26.85;18.48;;;11.60;99.90;;;;;;5051934;28;20100;-85
2023/01/24 09:15:53;;;;;;;25.70;19.15;;;13.40;99.90;;;;;;5051991;28;20180;-86
2023/01/24 09:18:19;;;;;;;26.50;19.40;;;14.60;99.90;;;;;;5051892;28;20029;-86
2023/01/24 09:20:45;;;;;;;23.35;18.00;;;13.30;99.90;;;;;;5051649;28;20032;-86
2023/01/24 09:23:14;;;;;;;27.55;18.90;;;11.50;99.90;;;;;;5052142;28;20520;-86
2023/01/24 09:25:50;;;;;;;26.17;18.70;;;12.30;99.90;;;;;;5051891;28;20036;-86
2023/01/24 09:28:18;;;;;;;27.05;19.80;;;13.50;99.90;;;;;;5051768;28;20025;-85
2023/01/24 09:30:43;;;;;;;27.58;18.38;;;14.30;99.90;;;;;;5051820;28;20491;-86
2023/01/24 09:33:09;;;;;;;27.58;18.80;;;15.80;99.90;;;;;;5052035;28;20045;-86
2023/01/24 09:35:35;;;;;;;23.38;17.65;;;15.30;99.90;;;;;;5051188;28;20030;-93
2023/01/24 09:38:00;;;;;;;25.33;17.85;;;17.10;99.90;;;;;;5050402;28;20389;-87
2023/01/24 09:40:32;;;;;;;23.20;18.70;;;17.40;99.90;;;;;;5050609;28;20481;-87
2023/01/24 09:43:20;;;;;;;21.88;17.65;;;17.60;99.90;;;;;;5051402;28;20025;-86
2023/01/24 09:46:04;;;;;;;22.02;17.90;;;18.00;99.90;;;;;;5049762;28;20125;-87
2023/01/24 09:48:34;;;;;;;22.10;17.45;;;17.80;99.90;;;;;;5041237;28;20037;-86
2023/01/24 09:51:24;;;;;;;23.98;17.67;;;16.10;99.90;;;;;;5052978;28;20013;-86
2023/01/24 09:53:53;;;;;;;20.92;17.35;;;14.20;99.90;;;;;;5037719;28;20029;-86
2023/01/24 09:56:37;;;;;;;21.40;18.20;;;11.80;99.90;;;;;;5055044;28;20084;-86
2023/01/24 09:59:19;;;;;;;22.80;18.70;;;10.90;99.90;;;;;;5055432;28;20112;-86
2023/01/24 10:01:47;;;;;;;28.35;18.05;;;10.60;99.90;;;;;;5055221;28;20337;-87
2023/01/24 10:04:21;;;;;;;22.85;17.25;;;12.90;99.90;;;;;;5054639;28;20025;-86
2023/01/24 10:07:24;;;;;;;22.27;17.92;;;14.40;99.90;;;;;;5055543;28;20400;-87
2023/01/24 10:09:49;;;;;;;23.08;19.65;;;14.30;99.90;;;;;;5056676;28;20029;-86
2023/01/24 10:12:45;;;;;;;23.95;19.73;;;14.70;99.90;;;;;;5057208;28;20082;-86
2023/01/24 10:15:35;;;;;;;22.77;18.83;;;13.90;99.90;;;;;;5074816;28;20044;-87
2023/01/24 10:18:16;;;;;;;22.35;18.13;;;11.50;99.90;;;;;;5034790;28;20041;-87
2023/01/24 10:21:09;;;;;;;22.50;17.48;;;10.70;99.90;;;;;;5035162;28;20028;-87
2023/01/24 10:23:40;;;;;;;24.05;18.27;;;10.10;99.90;;;;;;5035196;28;20017;-87
2023/01/24 10:26:27;;;;;;;23.23;17.58;;;9.60;99.90;;;;;;5054780;28;20117;-88
2023/01/24 10:28:55;;;;;;;25.60;18.67;;;9.30;99.90;;;;;;5054753;28;20025;-88
2023/01/24 10:31:34;;;;;;;25.48;18.60;;;9.40;99.90;;;;;;5054508;28;20503;-86
2023/01/24 10:34:32;;;;;;;25.58;18.67;;;9.70;99.90;;;;;;5044017;28;20041;-89
2023/01/24 10:37:17;;;;;;;53.85;30.80;;;9.80;99.90;;;;;;5045367;28;20515;-88
2023/01/24 10:39:43;;;;;;;70.07;39.42;;;10.00;99.90;;;;;;5054465;28;20029;-88
2023/01/24 10:42:18;;;;;;;25.58;18.17;;;10.00;99.90;;;;;;5054805;28;20455;-85
2023/01/24 10:44:44;;;;;;;28.05;19.10;;;9.80;99.90;;;;;;5043952;28;20037;-85
2023/01/24 10:47:38;;;;;;;27.40;19.05;;;9.70;99.90;;;;;;5054343;28;20033;-85
2023/01/24 10:50:10;;;;;;;55.47;32.67;;;10.20;99.90;;;;;;5054284;28;20028;-86
2023/01/24 10:52:36;;;;;;;26.75;19.42;;;10.50;99.90;;;;;;5054434;28;20485;-86
2023/01/24 10:55:21;;;;;;;26.48;18.65;;;9.70;99.90;;;;;;5054354;28;20032;-87
2023/01/24 10:57:52;;;;;;;33.08;24.27;;;9.70;99.90;;;;;;5054427;28;20445;-84
2023/01/24 11:00:35;;;;;;;27.95;19.13;;;9.20;99.90;;;;;;5053879;28;20075;-87
2023/01/24 11:03:04;;;;;;;28.20;18.98;;;9.00;99.90;;;;;;5054246;28;20060;-86
2023/01/24 11:05:47;;;;;;;25.25;18.05;;;8.90;99.90;;;;;;5053654;28;20037;-86
2023/01/24 11:08:37;;;;;;;26.48;18.80;;;8.40;99.90;;;;;;5053278;28;20029;-87
2023/01/24 11:11:17;;;;;;;26.63;18.63;;;8.30;99.90;;;;;;5046173;28;20067;-87
2023/01/24 11:13:44;;;;;;;25.10;18.17;;;8.30;99.90;;;;;;5036194;28;20035;-85
2023/01/24 11:16:15;;;;;;;36.67;25.27;;;8.00;99.90;;;;;;5053477;28;20033;-84
2023/01/24 11:19:00;;;;;;;44.55;33.67;;;7.90;99.90;;;;;;5053286;28;20032;-84
2023/01/24 11:21:27;;;;;;;30.83;23.30;;;7.70;99.90;;;;;;5053253;28;20087;-84
2023/01/24 11:24:22;;;;;;;36.08;25.83;;;7.30;99.90;;;;;;5054484;28;20484;-84
2023/01/24 11:27:13;;;;;;;28.00;19.02;;;7.20;99.90;;;;;;5043855;28;20059;-84
2023/01/24 11:29:39;;;;;;;28.30;20.40;;;7.20;99.90;;;;;;5052544;28;20040;-85
2023/01/24 11:32:23;;;;;;;34.25;23.70;;;7.10;99.90;;;;;;5053578;28;20128;-87
2023/01/24 11:35:10;;;;;;;27.15;18.75;;;7.40;99.90;;;;;;5053047;28;20025;-85
2023/01/24 11:38:02;;;;;;;23.65;16.85;;;7.70;99.90;;;;;;5053385;28;20032;-86
2023/01/24 11:40:40;;;;;;;25.30;17.52;;;7.90;99.90;;;;;;5036542;28;20385;-84
2023/01/24 11:43:43;;;;;;;54.08;33.78;;;8.30;99.90;;;;;;5047780;28;20025;-85
2023/01/24 11:46:30;;;;;;;56.30;33.38;;;8.30;99.90;;;;;;5053457;28;20044;-92
2023/01/24 11:49:04;;;;;;;33.60;21.92;;;7.70;99.90;;;;;;5052288;28;20075;-89
2023/01/24 11:51:51;;;;;;;48.25;28.73;;;7.50;99.90;;;;;;5035289;28;20370;-86
2023/01/24 11:54:29;;;;;;;24.98;17.67;;;7.40;99.90;;;;;;5053062;28;20029;-87
2023/01/24 11:57:17;;;;;;;58.72;31.20;;;7.30;99.90;;;;;;5054203;28;20495;-86
2023/01/24 12:00:11;;;;;;;30.80;20.48;;;7.20;99.90;;;;;;5053184;28;20078;-88
2023/01/24 12:02:55;;;;;;;49.47;28.00;;;7.10;99.90;;;;;;5034038;28;20033;-89
2023/01/24 12:06:04;;;;;;;34.97;23.50;;;7.00;99.90;;;;;;5049448;28;20047;-89
2023/01/24 12:09:02;;;;;;;44.92;26.77;;;7.00;99.90;;;;;;4974970;28;20118;-88
2023/01/24 12:12:26;;;;;;;23.52;17.27;;;6.90;99.90;;;;;;4988016;28;20053;-89
2023/01/24 12:15:33;;;;;;;41.22;24.23;;;6.80;99.90;;;;;;4929699;29;20554;-89
2023/01/24 12:18:42;;;;;;;30.55;20.50;;;6.80;99.90;;;;;;4933369;29;20085;-89
2023/01/24 12:21:09;;;;;;;24.83;15.88;;;6.70;99.90;;;;;;4929140;29;20024;-89
2023/01/24 12:23:51;;;;;;;37.28;23.00;;;6.80;99.90;;;;;;4917447;29;20039;-89
2023/01/24 12:26:29;;;;;;;37.22;24.40;;;6.90;99.90;;;;;;4934563;29;20044;-89
2023/01/24 12:29:09;;;;;;;22.05;16.13;;;7.00;99.90;;;;;;4932255;29;20044;-88
2023/01/24 12:31:40;;;;;;;25.92;18.35;;;6.90;99.90;;;;;;4932690;29;20047;-89
2023/01/24 12:35:07;;;;;;;36.20;22.42;;;6.90;99.90;;;;;;4917404;29;20437;-89
2023/01/24 12:37:41;;;;;;;25.48;17.63;;;7.00;99.90;;;;;;4875600;29;20044;-88
2023/01/24 12:40:15;;;;;;;39.42;24.23;;;6.90;99.90;;;;;;4877060;29;20104;-89
2023/01/24 12:42:55;;;;;;;294.83;120.22;;;7.00;99.90;;;;;;4877138;29;20071;-88
2023/01/24 12:45:34;;;;;;;25.63;17.75;;;6.90;99.90;;;;;;4879263;29;20430;-89
2023/01/24 12:48:27;;;;;;;89.85;44.25;;;7.00;99.90;;;;;;4906837;29;20150;-89
2023/01/24 12:50:58;;;;;;;23.33;15.70;;;7.10;99.90;;;;;;4932286;29;20032;-89
2023/01/24 12:54:06;;;;;;;140.02;66.35;;;6.80;99.90;;;;;;4925822;29;20035;-88
2023/01/24 12:56:42;;;;;;;160.18;89.97;;;6.80;99.90;;;;;;4925315;29;20107;-89
2023/01/24 12:59:11;;;;;;;158.88;112.13;;;6.80;99.90;;;;;;4948282;29;20074;-89
2023/01/24 13:01:48;;;;;;;23.90;17.60;;;6.80;99.90;;;;;;4948124;29;20058;-89
2023/01/24 13:04:47;;;;;;;39.72;33.63;;;7.10;99.90;;;;;;4932489;29;20036;-89
2023/01/24 13:07:32;;;;;;;21.13;15.68;;;7.00;99.90;;;;;;4935427;28;20492;-89
2023/01/24 13:10:05;;;;;;;21.02;16.90;;;7.70;99.90;;;;;;4991496;28;20030;-89
2023/01/24 13:12:31;;;;;;;19.17;14.43;;;7.70;99.90;;;;;;4990724;28;20537;-88
2023/01/24 13:15:24;;;;;;;21.83;15.60;;;7.80;99.90;;;;;;5047540;28;20456;-89
2023/01/24 13:18:01;;;;;;;22.13;15.88;;;7.90;99.90;;;;;;4991607;28;20050;-89
2023/01/24 13:21:00;;;;;;;21.40;16.10;;;7.50;99.90;;;;;;4990008;28;20117;-89
2023/01/24 13:23:43;;;;;;;21.83;16.90;;;7.30;99.90;;;;;;4990948;28;20046;-88
2023/01/24 13:26:30;;;;;;;19.67;15.13;;;7.30;99.90;;;;;;4973477;28;20057;-88
2023/01/24 13:29:14;;;;;;;20.98;16.15;;;7.30;99.90;;;;;;4969475;28;20045;-88
2023/01/24 13:31:50;;;;;;;22.48;16.02;;;7.20;99.90;;;;;;4993456;28;20134;-88
2023/01/24 13:34:21;;;;;;;22.10;15.38;;;7.10;99.90;;;;;;4993936;28;20054;-88